Aviation Digital Data Service (ADDS)

Output produced by METARs form (1551 UTC 27 November 2014)
found at http://aviationweather.gov/adds/metars/
 
KGSO 271344Z 2714/2812 02004KT 5SM RA BR SCT005 BKN018 OVC035 
     TEMPO 2714/2716 P6SM NSW BKN005 
     FM271600 34007KT P6SM -RA SCT008 BKN020 
     TEMPO 2716/2720 32010G20KT 
     FM272200 31008KT P6SM SKC